createdAt,value
2022-10-02T00:01:37.903Z,71.26
2022-10-02T00:04:11.283Z,71.48
2022-10-02T00:06:46.545Z,71.10
2022-10-02T00:09:20.736Z,71.12
2022-10-02T00:11:53.618Z,71.46
2022-10-02T00:14:25.243Z,71.30
2022-10-02T00:16:56.904Z,71.10
2022-10-02T00:19:25.445Z,71.23
2022-10-02T00:22:08.372Z,71.37
2022-10-02T00:24:40.684Z,71.31
2022-10-02T00:27:16.973Z,71.78
2022-10-02T00:29:50.702Z,71.54
2022-10-02T00:32:27.187Z,71.20
2022-10-02T00:35:17.880Z,71.21
2022-10-02T00:37:55.824Z,70.89
2022-10-02T00:40:40.494Z,71.38
2022-10-02T00:43:18.954Z,71.23
2022-10-02T00:46:13.665Z,71.28
2022-10-02T00:48:49.965Z,71.57
2022-10-02T00:51:33.093Z,71.71
2022-10-02T00:54:15.653Z,71.38
2022-10-02T00:56:53.601Z,71.65
2022-10-02T00:59:44.792Z,71.86
2022-10-02T01:02:35.049Z,71.67
2022-10-02T01:05:06.049Z,72.01
2022-10-02T01:07:35.555Z,72.28
2022-10-02T01:10:05.109Z,72.58
2022-10-02T01:12:32.978Z,72.15
2022-10-02T01:15:00.813Z,72.25
2022-10-02T01:17:32.541Z,72.40
2022-10-02T01:20:04.061Z,72.26
2022-10-02T01:22:37.000Z,72.91
2022-10-02T01:25:08.514Z,72.51
2022-10-02T01:27:39.380Z,72.67
2022-10-02T01:30:10.484Z,72.41
2022-10-02T01:32:42.650Z,72.71
2022-10-02T01:35:11.653Z,72.74
2022-10-02T01:37:42.083Z,72.44
2022-10-02T01:40:25.245Z,72.72
2022-10-02T01:42:54.824Z,72.75
2022-10-02T01:45:31.725Z,72.76
2022-10-02T01:48:06.539Z,73.10
2022-10-02T01:50:47.520Z,73.07
2022-10-02T01:53:24.226Z,73.15
2022-10-02T01:56:03.474Z,73.34
2022-10-02T01:58:43.122Z,73.36
2022-10-02T02:01:23.379Z,73.06
2022-10-02T02:04:00.188Z,73.18
2022-10-02T02:06:31.858Z,73.41
2022-10-02T02:09:09.151Z,72.93
2022-10-02T02:11:42.292Z,72.53
2022-10-02T02:14:16.044Z,72.95
2022-10-02T02:16:46.776Z,72.38
2022-10-02T02:19:21.339Z,72.43
2022-10-02T02:21:55.042Z,73.09
2022-10-02T02:24:27.450Z,72.63
2022-10-02T02:27:01.789Z,72.71
2022-10-02T02:29:33.252Z,72.63
2022-10-02T02:32:05.276Z,72.85
2022-10-02T02:34:36.788Z,73.12
2022-10-02T02:37:09.501Z,73.35
2022-10-02T02:39:42.188Z,73.84
2022-10-02T02:42:17.679Z,74.03
2022-10-02T02:44:53.592Z,74.25
2022-10-02T02:47:25.429Z,74.05
2022-10-02T02:49:58.316Z,74.10
2022-10-02T02:52:29.874Z,74.01
2022-10-02T02:55:03.589Z,74.21
2022-10-02T02:57:39.002Z,74.31
2022-10-02T03:00:08.154Z,74.06
2022-10-02T03:02:36.531Z,73.86
2022-10-02T03:05:11.616Z,73.82
2022-10-02T03:07:39.514Z,73.80
2022-10-02T03:10:16.021Z,73.92
2022-10-02T03:12:59.417Z,73.76
2022-10-02T03:15:31.123Z,73.59
2022-10-02T03:18:27.193Z,73.53
2022-10-02T03:21:05.283Z,73.80
2022-10-02T03:23:38.520Z,73.62
2022-10-02T03:26:12.554Z,73.55
2022-10-02T03:28:56.392Z,73.57
2022-10-02T03:31:28.626Z,74.16
2022-10-02T03:33:59.984Z,74.00
2022-10-02T03:36:28.332Z,74.12
2022-10-02T03:39:24.343Z,74.10
2022-10-02T03:41:47.861Z,73.82
2022-10-02T03:44:17.015Z,73.77
2022-10-02T03:46:45.028Z,73.78
2022-10-02T03:49:12.933Z,73.74
2022-10-02T03:51:40.802Z,73.87
2022-10-02T03:54:16.721Z,73.84
2022-10-02T03:56:52.281Z,74.32
2022-10-02T03:59:37.762Z,74.54
2022-10-02T04:02:09.988Z,74.84
2022-10-02T04:04:45.616Z,75.17
2022-10-02T04:07:20.240Z,75.25
2022-10-02T04:09:56.035Z,75.63
2022-10-02T04:12:30.145Z,76.07
2022-10-02T04:15:05.045Z,76.23
2022-10-02T04:17:43.922Z,76.06
2022-10-02T04:20:17.528Z,76.37
2022-10-02T04:22:51.322Z,76.24
2022-10-02T04:25:21.639Z,76.63
2022-10-02T04:27:56.107Z,76.69
2022-10-02T04:30:25.676Z,76.57
2022-10-02T04:32:54.749Z,76.56
2022-10-02T04:35:30.665Z,76.58
2022-10-02T04:38:15.963Z,76.56
2022-10-02T04:40:56.226Z,77.20
2022-10-02T04:43:43.456Z,76.66
2022-10-02T04:46:27.640Z,76.60
2022-10-02T04:49:11.009Z,77.19
2022-10-02T04:51:51.530Z,77.12
2022-10-02T04:54:38.515Z,76.57
2022-10-02T04:57:27.763Z,77.05
2022-10-02T05:00:06.084Z,76.88
2022-10-02T05:02:47.695Z,76.71
2022-10-02T05:05:25.392Z,76.22
2022-10-02T05:08:24.751Z,76.76
2022-10-02T05:11:05.959Z,76.48
2022-10-02T05:14:00.431Z,76.49
2022-10-02T05:16:41.113Z,76.25
2022-10-02T05:19:38.454Z,76.64
2022-10-02T05:22:43.261Z,75.94
2022-10-02T05:25:23.196Z,75.82
2022-10-02T05:28:08.778Z,75.72
2022-10-02T05:30:45.944Z,75.68
2022-10-02T05:33:39.579Z,75.57
2022-10-02T05:36:23.653Z,75.43
2022-10-02T05:39:03.494Z,75.60
2022-10-02T05:41:41.726Z,75.48
2022-10-02T05:44:16.228Z,75.87
2022-10-02T05:46:50.679Z,75.54
2022-10-02T05:49:21.548Z,75.77
2022-10-02T05:51:59.551Z,75.50
2022-10-02T05:54:37.177Z,75.48
2022-10-02T05:57:11.848Z,75.13
2022-10-02T05:59:46.018Z,75.39
2022-10-02T06:02:24.128Z,75.68
2022-10-02T06:04:58.824Z,75.56
2022-10-02T06:07:29.271Z,75.68
2022-10-02T06:10:01.804Z,75.64
2022-10-02T06:12:36.410Z,75.54
2022-10-02T06:15:08.608Z,75.74
2022-10-02T06:17:42.759Z,74.75
2022-10-02T06:20:19.456Z,74.62
2022-10-02T06:22:53.035Z,74.94
2022-10-02T06:25:25.393Z,74.86
2022-10-02T06:27:58.635Z,74.80
2022-10-02T06:30:27.564Z,74.67
2022-10-02T06:33:10.594Z,74.46
2022-10-02T06:35:55.104Z,74.33
2022-10-02T06:38:41.672Z,74.25
2022-10-02T06:41:19.783Z,74.10
2022-10-02T06:44:07.996Z,74.22
2022-10-02T06:46:43.845Z,73.96
2022-10-02T06:49:22.779Z,74.04
2022-10-02T06:52:04.245Z,73.59
2022-10-02T06:54:48.906Z,74.21
2022-10-02T06:57:32.809Z,73.67
2022-10-02T07:00:10.268Z,73.76
2022-10-02T07:02:59.523Z,73.79
2022-10-02T07:05:45.417Z,73.32
2022-10-02T07:08:22.845Z,73.27
2022-10-02T07:10:59.239Z,73.13
2022-10-02T07:13:38.902Z,73.12
2022-10-02T07:16:37.128Z,73.39
2022-10-02T07:19:29.865Z,73.05
2022-10-02T07:22:26.155Z,73.14
2022-10-02T07:25:23.923Z,73.04
2022-10-02T07:28:01.583Z,72.71
2022-10-02T07:30:38.634Z,72.74
2022-10-02T07:33:12.052Z,72.41
2022-10-02T07:35:47.058Z,71.93
2022-10-02T07:38:45.787Z,71.43
2022-10-02T07:42:01.134Z,71.00
2022-10-02T07:44:55.637Z,70.19
2022-10-02T07:47:43.176Z,70.26
2022-10-02T07:50:14.600Z,69.76
2022-10-02T07:52:52.137Z,68.50
2022-10-02T07:55:21.540Z,68.77
2022-10-02T07:58:01.350Z,69.08
2022-10-02T08:00:34.891Z,69.02
2022-10-02T08:03:07.160Z,69.62
2022-10-02T08:05:40.315Z,69.44
2022-10-02T08:08:16.703Z,69.76
2022-10-02T08:10:49.940Z,70.30
2022-10-02T08:13:21.964Z,70.32
2022-10-02T08:15:55.891Z,70.26
2022-10-02T08:18:34.630Z,70.58
2022-10-02T08:21:06.372Z,70.38
2022-10-02T08:23:40.576Z,70.07
2022-10-02T08:26:16.457Z,69.70
2022-10-02T08:28:50.565Z,69.71
2022-10-02T08:31:19.823Z,68.95
2022-10-02T08:33:47.989Z,67.70
2022-10-02T08:36:40.006Z,67.74
2022-10-02T08:39:20.353Z,67.52
2022-10-02T08:42:20.976Z,67.65
2022-10-02T08:45:22.324Z,63.69
2022-10-02T08:48:29.880Z,64.03
2022-10-02T08:51:30.691Z,64.42
2022-10-02T08:54:32.212Z,63.77
2022-10-02T08:57:13.160Z,63.15
2022-10-02T09:00:09.405Z,61.15
2022-10-02T09:03:33.808Z,60.43
2022-10-02T09:06:38.681Z,59.80
2022-10-02T09:09:38.252Z,60.08
2022-10-02T09:12:45.948Z,60.11
2022-10-02T09:15:19.516Z,60.68
2022-10-02T09:17:49.958Z,60.19
2022-10-02T09:20:42.355Z,60.59
2022-10-02T09:23:45.396Z,60.68
2022-10-02T09:26:21.229Z,59.81
2022-10-02T09:29:14.309Z,59.43
2022-10-02T09:32:27.625Z,59.89
2022-10-02T09:35:30.544Z,59.96
2022-10-02T09:38:38.328Z,59.62
2022-10-02T09:41:44.296Z,59.54
2022-10-02T09:44:38.185Z,59.96
2022-10-02T09:48:04.835Z,58.74
2022-10-02T09:50:55.678Z,59.69
2022-10-02T09:54:00.061Z,59.63
2022-10-02T09:56:56.285Z,59.40
2022-10-02T09:59:58.151Z,58.96
2022-10-02T10:02:50.749Z,58.31
2022-10-02T10:05:48.980Z,58.43
2022-10-02T10:08:35.407Z,57.61
2022-10-02T10:11:36.010Z,56.62
2022-10-02T10:14:40.133Z,56.32
2022-10-02T10:17:56.592Z,56.43
2022-10-02T10:20:59.968Z,55.23
2022-10-02T10:23:52.733Z,54.26
2022-10-02T10:26:56.159Z,55.20
2022-10-02T10:29:45.326Z,55.99
2022-10-02T10:32:42.111Z,56.94
2022-10-02T10:35:24.819Z,56.92
2022-10-02T10:38:29.775Z,56.25
2022-10-02T10:41:11.139Z,56.13
2022-10-02T10:44:08.301Z,55.88
2022-10-02T10:47:01.117Z,56.07
2022-10-02T10:50:02.735Z,54.51
2022-10-02T10:52:48.006Z,54.87
2022-10-02T10:55:22.433Z,54.42
2022-10-02T10:58:03.190Z,53.36
2022-10-02T11:00:39.289Z,53.98
2022-10-02T11:03:44.745Z,54.39
2022-10-02T11:06:34.968Z,54.64
2022-10-02T11:09:30.881Z,55.27
2022-10-02T11:12:28.161Z,55.75
2022-10-02T11:15:10.086Z,55.87
2022-10-02T11:17:56.353Z,56.38
2022-10-02T11:21:05.041Z,56.82
2022-10-02T11:24:02.222Z,56.83
2022-10-02T11:26:44.270Z,56.79
2022-10-02T11:29:41.820Z,57.26
2022-10-02T11:32:31.717Z,57.33
2022-10-02T11:35:19.642Z,57.99
2022-10-02T11:38:12.048Z,57.65
2022-10-02T11:41:15.616Z,56.31
2022-10-02T11:44:06.172Z,55.33
2022-10-02T11:46:54.428Z,54.03
2022-10-02T11:50:16.801Z,53.86
2022-10-02T11:53:04.309Z,54.03
2022-10-02T11:55:46.641Z,54.14
2022-10-02T11:58:26.686Z,53.67
2022-10-02T12:01:09.645Z,54.49
2022-10-02T12:03:53.686Z,56.10
2022-10-02T12:06:36.920Z,58.05
2022-10-02T12:09:14.712Z,58.60
2022-10-02T12:11:49.184Z,59.38
2022-10-02T12:14:30.509Z,59.96
2022-10-02T12:17:11.796Z,60.50
2022-10-02T12:20:16.882Z,61.11
2022-10-02T12:23:13.742Z,60.87
2022-10-02T12:26:05.054Z,59.91
2022-10-02T12:28:42.728Z,60.19
2022-10-02T12:31:19.589Z,59.75
2022-10-02T12:33:56.787Z,59.51
2022-10-02T12:36:47.961Z,59.30
2022-10-02T12:39:32.050Z,58.90
2022-10-02T12:42:31.168Z,58.04
2022-10-02T12:45:37.360Z,57.77
2022-10-02T12:48:30.353Z,56.75
2022-10-02T12:51:25.890Z,55.94
2022-10-02T12:54:43.017Z,55.60
2022-10-02T12:57:47.039Z,55.45
2022-10-02T13:00:17.202Z,55.93
2022-10-02T13:03:18.737Z,55.44
2022-10-02T13:06:34.575Z,55.72
2022-10-02T13:09:18.095Z,56.19
2022-10-02T13:12:01.381Z,56.19
2022-10-02T13:14:50.669Z,56.57
2022-10-02T13:17:30.256Z,56.80
2022-10-02T13:20:04.720Z,57.06
2022-10-02T13:22:40.745Z,56.41
2022-10-02T13:25:34.937Z,56.27
2022-10-02T13:28:20.810Z,56.63
2022-10-02T13:31:01.882Z,57.24
2022-10-02T13:33:43.916Z,57.91
2022-10-02T13:36:20.309Z,57.71
2022-10-02T13:39:11.081Z,58.74
2022-10-02T13:41:57.610Z,58.80
2022-10-02T13:44:36.790Z,58.88
2022-10-02T13:47:22.524Z,59.17
2022-10-02T13:50:16.698Z,59.63
2022-10-02T13:52:59.213Z,60.22
2022-10-02T13:55:29.717Z,60.60
2022-10-02T13:58:17.285Z,61.14
2022-10-02T14:00:59.037Z,61.28
2022-10-02T14:03:47.868Z,61.83
2022-10-02T14:06:23.040Z,62.25
2022-10-02T14:09:07.777Z,62.81
2022-10-02T14:12:01.792Z,62.97
2022-10-02T14:14:47.095Z,63.37
2022-10-02T14:17:26.360Z,63.32
2022-10-02T14:20:18.699Z,63.06
2022-10-02T14:23:04.055Z,62.58
2022-10-02T14:25:46.610Z,62.64
2022-10-02T14:28:35.969Z,62.24
2022-10-02T14:31:14.613Z,62.49
2022-10-02T14:34:06.849Z,62.34
2022-10-02T14:36:45.321Z,62.69
2022-10-02T14:39:26.649Z,62.62
2022-10-02T14:42:16.238Z,62.78
2022-10-02T14:45:07.713Z,62.73
2022-10-02T14:47:51.169Z,62.91
2022-10-02T14:50:34.609Z,63.30
2022-10-02T14:53:15.585Z,63.37
2022-10-02T14:56:09.276Z,63.32
2022-10-02T14:58:51.599Z,63.43
2022-10-02T15:01:23.702Z,63.53
2022-10-02T15:04:21.987Z,63.30
2022-10-02T15:07:10.360Z,63.77
2022-10-02T15:09:53.845Z,63.79
2022-10-02T15:12:25.168Z,63.83
2022-10-02T15:15:07.510Z,64.54
2022-10-02T15:17:58.733Z,65.06
2022-10-02T15:20:33.752Z,66.28
2022-10-02T15:23:06.764Z,67.22
2022-10-02T15:25:58.384Z,68.43
2022-10-02T15:28:41.323Z,69.35
2022-10-02T15:31:22.024Z,70.59
2022-10-02T15:34:02.160Z,72.36
2022-10-02T15:36:55.472Z,74.18
2022-10-02T15:39:39.899Z,75.31
2022-10-02T15:42:09.920Z,76.89
2022-10-02T15:45:02.619Z,77.59
2022-10-02T15:47:46.346Z,77.27
2022-10-02T15:50:31.475Z,77.35
2022-10-02T15:53:23.296Z,78.05
2022-10-02T15:56:00.517Z,78.33
2022-10-02T15:58:53.256Z,78.67
2022-10-02T16:01:40.309Z,79.11
2022-10-02T16:04:22.541Z,79.63
2022-10-02T16:07:31.915Z,79.92
2022-10-02T16:10:18.023Z,80.05
2022-10-02T16:13:12.383Z,81.14
2022-10-02T16:15:51.582Z,81.03
2022-10-02T16:18:47.646Z,81.07
2022-10-02T16:21:48.157Z,81.54
2022-10-02T16:24:39.449Z,81.45
2022-10-02T16:27:20.268Z,81.79
2022-10-02T16:30:05.290Z,82.34
2022-10-02T16:32:50.100Z,82.40
2022-10-02T16:35:47.151Z,82.18
2022-10-02T16:38:22.616Z,82.15
2022-10-02T16:40:57.709Z,82.14
2022-10-02T16:43:48.627Z,82.22
2022-10-02T16:46:24.490Z,82.93
2022-10-02T16:48:57.925Z,83.25
2022-10-02T16:51:34.532Z,83.27
2022-10-02T16:54:13.829Z,84.01
2022-10-02T16:56:50.870Z,84.17
2022-10-02T16:59:24.728Z,84.53
2022-10-02T17:02:17.113Z,84.58
2022-10-02T17:04:56.213Z,85.34
2022-10-02T17:07:31.730Z,85.61
2022-10-02T17:10:07.238Z,85.71
2022-10-02T17:12:45.648Z,85.99
2022-10-02T17:15:21.934Z,85.79
2022-10-02T17:18:06.567Z,86.01
2022-10-02T17:20:44.368Z,85.56
2022-10-02T17:23:21.241Z,85.17
2022-10-02T17:25:58.748Z,85.44
2022-10-02T17:28:36.037Z,84.87
2022-10-02T17:31:36.045Z,84.80
2022-10-02T17:34:19.979Z,84.65
2022-10-02T17:37:02.287Z,84.64
2022-10-02T17:39:43.979Z,84.79
2022-10-02T17:42:21.466Z,84.35
2022-10-02T17:44:59.060Z,84.05
2022-10-02T17:47:51.492Z,84.54
2022-10-02T17:50:48.439Z,84.29
2022-10-02T17:54:03.359Z,84.18
2022-10-02T17:56:50.743Z,83.92
2022-10-02T17:59:36.763Z,83.89
2022-10-02T18:02:14.308Z,84.48
2022-10-02T18:04:56.878Z,84.34
2022-10-02T18:07:45.477Z,84.67
2022-10-02T18:10:24.788Z,84.61
2022-10-02T18:13:20.464Z,84.50
2022-10-02T18:16:01.970Z,84.16
2022-10-02T18:18:37.830Z,84.05
2022-10-02T18:21:22.722Z,83.82
2022-10-02T18:24:11.905Z,83.10
2022-10-02T18:26:53.286Z,83.01
2022-10-02T18:29:45.795Z,82.69
2022-10-02T18:32:27.391Z,82.72
2022-10-02T18:35:19.822Z,82.46
2022-10-02T18:38:03.048Z,82.45
2022-10-02T18:40:35.138Z,82.73
2022-10-02T18:43:38.786Z,82.63
2022-10-02T18:46:17.704Z,82.25
2022-10-02T18:49:02.005Z,82.51
2022-10-02T18:52:10.590Z,81.87
2022-10-02T18:54:51.738Z,81.96
2022-10-02T18:57:38.669Z,82.19
2022-10-02T19:00:19.322Z,82.07
2022-10-02T19:03:04.282Z,82.16
2022-10-02T19:05:36.133Z,82.29
2022-10-02T19:08:17.857Z,82.34
2022-10-02T19:10:47.891Z,81.87
2022-10-02T19:13:24.427Z,82.33
2022-10-02T19:15:55.041Z,81.86
2022-10-02T19:18:25.355Z,81.83
2022-10-02T19:20:57.529Z,82.00
2022-10-02T19:23:32.917Z,81.79
2022-10-02T19:26:05.806Z,81.82
2022-10-02T19:28:46.238Z,81.70
2022-10-02T19:31:21.548Z,81.86
2022-10-02T19:33:52.647Z,81.72
2022-10-02T19:36:25.414Z,81.02
2022-10-02T19:38:57.536Z,81.35
2022-10-02T19:41:26.360Z,80.87
2022-10-02T19:43:59.428Z,81.09
2022-10-02T19:46:38.892Z,80.98
2022-10-02T19:49:08.700Z,81.14
2022-10-02T19:51:47.605Z,81.16
2022-10-02T19:54:21.692Z,81.23
2022-10-02T19:56:54.373Z,81.02
2022-10-02T19:59:30.060Z,81.22
2022-10-02T20:02:01.854Z,80.99
2022-10-02T20:04:32.109Z,80.19
2022-10-02T20:07:02.034Z,80.01
2022-10-02T20:09:34.500Z,79.64
2022-10-02T20:12:10.305Z,79.70
2022-10-02T20:14:45.222Z,79.29
2022-10-02T20:17:13.566Z,79.71
2022-10-02T20:19:45.219Z,79.68
2022-10-02T20:22:23.834Z,79.66
2022-10-02T20:24:57.329Z,79.66
2022-10-02T20:27:34.802Z,79.56
2022-10-02T20:30:11.847Z,79.56
2022-10-02T20:32:43.251Z,79.07
2022-10-02T20:35:18.222Z,79.13
2022-10-02T20:37:49.390Z,79.40
2022-10-02T20:40:21.157Z,78.73
2022-10-02T20:42:55.160Z,79.32
2022-10-02T20:45:33.797Z,79.17
2022-10-02T20:49:03.493Z,79.08
2022-10-02T20:52:11.512Z,79.47
2022-10-02T20:54:51.513Z,79.05
2022-10-02T20:58:02.211Z,79.11
2022-10-02T21:00:44.143Z,79.29
2022-10-02T21:03:26.942Z,79.30
2022-10-02T21:06:26.324Z,79.32
2022-10-02T21:09:28.895Z,79.51
2022-10-02T21:12:23.499Z,79.65
2022-10-02T21:15:09.861Z,79.72
2022-10-02T21:18:10.219Z,79.54
2022-10-02T21:21:02.143Z,79.60
2022-10-02T21:24:01.561Z,79.57
2022-10-02T21:27:22.840Z,79.87
2022-10-02T21:30:04.506Z,80.07
2022-10-02T21:32:41.874Z,80.15
2022-10-02T21:35:35.679Z,80.12
2022-10-02T21:38:32.244Z,80.37
2022-10-02T21:41:28.509Z,80.26
2022-10-02T21:44:26.929Z,80.61
2022-10-02T21:47:27.398Z,80.61
2022-10-02T21:50:23.404Z,80.63
2022-10-02T21:53:24.572Z,80.83
2022-10-02T21:56:31.270Z,80.99
2022-10-02T21:59:34.601Z,81.01
2022-10-02T22:02:32.054Z,80.83
2022-10-02T22:05:29.329Z,80.97
2022-10-02T22:08:10.612Z,81.06
2022-10-02T22:10:49.220Z,81.20
2022-10-02T22:13:27.351Z,81.17
2022-10-02T22:16:09.852Z,81.33
2022-10-02T22:18:46.554Z,81.41
2022-10-02T22:21:42.323Z,81.23
2022-10-02T22:24:43.166Z,81.36
2022-10-02T22:27:43.295Z,81.47
2022-10-02T22:30:22.897Z,81.62
2022-10-02T22:33:12.246Z,81.91
2022-10-02T22:36:01.971Z,81.81
2022-10-02T22:38:34.360Z,81.80
2022-10-02T22:41:08.066Z,81.87
2022-10-02T22:43:43.529Z,81.78
2022-10-02T22:46:25.574Z,81.75
2022-10-02T22:49:00.604Z,81.92
2022-10-02T22:51:38.020Z,81.81
2022-10-02T22:54:19.144Z,81.75
2022-10-02T22:56:57.524Z,81.19
2022-10-02T22:59:31.025Z,81.48
2022-10-02T23:02:08.197Z,81.04
2022-10-02T23:04:44.656Z,81.13
2022-10-02T23:07:17.160Z,81.38
2022-10-02T23:09:51.548Z,80.94
2022-10-02T23:12:28.067Z,80.42
2022-10-02T23:15:07.025Z,80.38
2022-10-02T23:17:43.483Z,80.75
2022-10-02T23:20:17.953Z,80.09
2022-10-02T23:22:55.510Z,79.83
2022-10-02T23:25:32.277Z,79.87
2022-10-02T23:28:04.565Z,79.73
2022-10-02T23:30:36.378Z,80.14
2022-10-02T23:33:08.484Z,79.85
2022-10-02T23:35:47.655Z,79.72
2022-10-02T23:38:20.360Z,79.19
2022-10-02T23:41:20.394Z,78.72
2022-10-02T23:43:57.722Z,78.98
2022-10-02T23:46:29.970Z,79.30
2022-10-02T23:48:57.941Z,79.01
2022-10-02T23:51:36.197Z,79.20
2022-10-02T23:54:22.373Z,79.21
2022-10-02T23:57:17.521Z,79.22
